Time;durP1;ratioP1;P1;durP2;ratioP2;P2;SDS_P1;SDS_P2;PMS_P1;PMS_P2;Temp;Humidity;BMP_temperature;BMP_pressure;BME280_temperature;BME280_humidity;BME280_pressure;Samples;Min_cycle;Max_cycle;Signal;HPM_P1;HPM_P2
2020/12/09 00:02:20;;;;;;;;;;;;;;;2.74;100.00;92971.53;5053543;28;20417;-89
2020/12/09 00:04:46;;;;;;;;;;;;;;;2.77;100.00;92978.81;5053689;28;20363;-90
2020/12/09 00:07:12;;;;;;;;;;;;;;;2.75;100.00;92982.47;5067054;28;20366;-89
2020/12/09 00:09:39;;;;;;;;;;;;;;;2.75;100.00;92975.66;5073489;28;19920;-91
2020/12/09 00:12:05;;;;;;;;;;;;;;;2.73;100.00;92969.97;5073173;28;19950;-90
2020/12/09 00:14:31;;;;;;;;;;;;;;;2.75;100.00;92967.25;5073366;28;19927;-90
2020/12/09 00:16:58;;;;;;;;;;;;;;;2.72;100.00;92976.00;5073231;28;19930;-90
2020/12/09 00:19:24;;;;;;;;;;;;;;;2.72;100.00;92980.28;5072903;28;19920;-90
2020/12/09 00:21:50;;;;;;;;;;;;;;;2.70;99.69;92982.19;5072770;28;20362;-90
2020/12/09 00:24:16;;;;;;;;;;;;;;;2.59;99.77;92980.81;5074595;28;20196;-89
2020/12/09 00:26:42;;;;;;;;;;;;;;;2.59;100.00;92970.69;5075550;28;19921;-91
2020/12/09 00:29:09;;;;;;;;;;;;;;;2.60;100.00;92977.34;5075421;28;19920;-89
2020/12/09 00:31:35;;;;;;;;;;;;;;;2.61;100.00;92978.91;5072837;28;19974;-90
2020/12/09 00:34:02;;;;;;;;;;;;;;;2.57;100.00;92985.25;5072641;28;19960;-89
2020/12/09 00:36:29;;;;;;;;;;;;;;;2.49;100.00;92983.53;5073238;28;19924;-90
2020/12/09 00:38:55;;;;;;;;;;;;;;;2.52;100.00;92970.56;5072858;28;20298;-90
2020/12/09 00:41:22;;;;;;;;;;;;;;;2.47;100.00;92981.19;5072229;28;19959;-90
2020/12/09 00:43:48;;;;;;;;;;;;;;;2.44;100.00;92975.66;5072321;28;19920;-90
2020/12/09 00:46:15;;;;;;;;;;;;;;;2.37;100.00;92981.38;5072481;28;19924;-90
2020/12/09 00:48:41;;;;;;;;;;;;;;;2.30;100.00;92983.00;5072166;28;19920;-90
2020/12/09 00:51:12;;;;;;;;;;;;;;;2.26;100.00;92979.22;5071997;28;19920;-89
2020/12/09 00:53:38;;;;;;;;;;;;;;;2.27;100.00;92985.88;5071938;28;19920;-91
2020/12/09 00:56:05;;;;;;;;;;;;;;;2.26;100.00;92987.59;5072206;28;19924;-88
2020/12/09 00:58:32;;;;;;;;;;;;;;;2.19;100.00;92986.69;5072138;28;19979;-89
2020/12/09 01:00:58;;;;;;;;;;;;;;;2.22;100.00;92988.13;5071960;28;19934;-89
2020/12/09 01:03:24;;;;;;;;;;;;;;;2.22;100.00;92988.13;5071990;28;19926;-89
2020/12/09 01:05:50;;;;;;;;;;;;;;;2.30;100.00;92983.00;5072226;28;19927;-89
2020/12/09 01:08:18;;;;;;;;;;;;;;;2.26;100.00;92984.28;5072095;28;19920;-89
2020/12/09 01:10:44;;;;;;;;;;;;;;;2.19;100.00;92988.44;5071834;28;19971;-90
2020/12/09 01:13:10;;;;;;;;;;;;;;;2.18;100.00;92974.94;5071950;28;19926;-89
2020/12/09 01:15:36;;;;;;;;;;;;;;;2.18;100.00;92974.19;5071861;28;19927;-89
2020/12/09 01:18:02;;;;;;;;;;;;;;;2.18;100.00;92974.19;5071503;28;19920;-89
2020/12/09 01:20:28;;;;;;;;;;;;;;;2.13;100.00;92967.84;5071780;28;19963;-89
2020/12/09 01:22:54;;;;;;;;;;;;;;;2.16;100.00;92963.44;5071705;28;19920;-90
2020/12/09 01:25:21;;;;;;;;;;;;;;;2.19;100.00;92955.47;5071605;28;20429;-89
2020/12/09 01:27:47;;;;;;;;;;;;;;;2.24;100.00;92958.31;5071511;28;19968;-91
2020/12/09 01:30:14;;;;;;;;;;;;;;;2.26;100.00;92949.59;5071976;28;19920;-89
2020/12/09 01:32:40;;;;;;;;;;;;;;;2.29;100.00;92953.53;5071684;28;19925;-89
2020/12/09 01:35:06;;;;;;;;;;;;;;;2.24;100.00;92948.19;5071391;28;20351;-90
2020/12/09 01:37:32;;;;;;;;;;;;;;;2.21;100.00;92944.22;5077713;28;20374;-89
2020/12/09 01:39:58;;;;;;;;;;;;;;;2.30;100.00;92934.06;5063880;28;19963;-89
2020/12/09 01:42:25;;;;;;;;;;;;;;;2.27;100.00;92938.50;5066362;28;19927;-93
2020/12/09 01:44:51;;;;;;;;;;;;;;;2.25;100.00;92937.88;5066691;28;19924;-89
2020/12/09 01:47:17;;;;;;;;;;;;;;;2.25;100.00;92942.94;5081071;28;20442;-89
2020/12/09 01:49:43;;;;;;;;;;;;;;;2.20;100.00;92952.78;5071277;28;19921;-89
2020/12/09 01:52:10;;;;;;;;;;;;;;;2.19;100.00;92947.88;5070233;28;20378;-90
2020/12/09 01:54:36;;;;;;;;;;;;;;;2.11;100.00;92941.91;5076452;28;20370;-89
2020/12/09 01:57:06;;;;;;;;;;;;;;;2.19;100.00;92936.00;5066639;28;19967;-90
2020/12/09 01:59:33;;;;;;;;;;;;;;;2.22;100.00;92929.81;5065050;28;19943;-91
2020/12/09 02:02:00;;;;;;;;;;;;;;;2.25;100.00;92935.34;5062618;28;19983;-88
2020/12/09 02:04:26;;;;;;;;;;;;;;;2.20;100.00;92922.38;5074322;28;19963;-89
2020/12/09 02:06:52;;;;;;;;;;;;;;;2.25;100.00;92930.28;5068504;28;19959;-90
2020/12/09 02:09:19;;;;;;;;;;;;;;;2.23;100.00;92936.47;5068736;28;19924;-89
2020/12/09 02:11:45;;;;;;;;;;;;;;;2.25;100.00;92947.22;5070067;28;19943;-90
2020/12/09 02:14:11;;;;;;;;;;;;;;;2.24;100.00;92951.50;5079828;28;19971;-90
2020/12/09 02:16:38;;;;;;;;;;;;;;;2.16;100.00;92943.94;5080245;28;19926;-90
2020/12/09 02:19:04;;;;;;;;;;;;;;;2.14;100.00;92945.84;5080967;28;20337;-89
2020/12/09 02:21:33;;;;;;;;;;;;;;;2.13;100.00;92952.66;5078984;28;19930;-89
2020/12/09 02:23:59;;;;;;;;;;;;;;;2.16;100.00;92949.00;5060320;28;19950;-90
2020/12/09 02:26:26;;;;;;;;;;;;;;;2.14;100.00;92951.69;5080898;28;20390;-89
2020/12/09 02:28:52;;;;;;;;;;;;;;;2.07;100.00;92949.97;5076312;28;20413;-89
2020/12/09 02:31:18;;;;;;;;;;;;;;;2.06;100.00;92944.13;5079547;28;20326;-91
2020/12/09 02:33:44;;;;;;;;;;;;;;;2.12;100.00;92950.28;5080516;28;19982;-90
2020/12/09 02:36:11;;;;;;;;;;;;;;;2.16;100.00;92945.69;5079961;28;20302;-89
2020/12/09 02:38:38;;;;;;;;;;;;;;;2.13;100.00;92949.34;5080254;28;19920;-90
2020/12/09 02:41:04;;;;;;;;;;;;;;;2.09;100.00;92953.16;5073046;28;19930;-89
2020/12/09 02:43:30;;;;;;;;;;;;;;;2.05;100.00;92949.34;5070737;28;19920;-90
2020/12/09 02:45:56;;;;;;;;;;;;;;;2.00;100.00;92948.09;5070737;28;19994;-89
2020/12/09 02:48:22;;;;;;;;;;;;;;;2.06;100.00;92944.13;5070506;28;20286;-89
2020/12/09 02:50:49;;;;;;;;;;;;;;;2.05;100.00;92945.09;5070861;28;19924;-89
2020/12/09 02:53:15;;;;;;;;;;;;;;;2.05;100.00;92944.28;5071957;28;20381;-89
2020/12/09 02:55:42;;;;;;;;;;;;;;;2.03;100.00;92946.22;5074309;28;19924;-89
2020/12/09 02:58:08;;;;;;;;;;;;;;;2.04;100.00;92947.78;5074168;28;19956;-91
2020/12/09 03:00:34;;;;;;;;;;;;;;;2.03;100.00;92933.53;5074301;28;19931;-89
2020/12/09 03:03:00;;;;;;;;;;;;;;;2.05;100.00;92941.75;5073736;28;19926;-89
2020/12/09 03:05:26;;;;;;;;;;;;;;;2.01;100.00;92938.75;5074177;28;19920;-89
2020/12/09 03:07:52;;;;;;;;;;;;;;;2.01;100.00;92933.69;5073869;28;19924;-89
2020/12/09 03:10:20;;;;;;;;;;;;;;;2.04;100.00;92933.34;5074161;28;19960;-89
2020/12/09 03:12:47;;;;;;;;;;;;;;;2.00;100.00;92927.06;5073976;28;20388;-89
2020/12/09 03:15:13;;;;;;;;;;;;;;;2.02;100.00;92927.66;5073947;28;19927;-92
2020/12/09 03:17:39;;;;;;;;;;;;;;;1.99;100.00;92933.84;5073701;28;19926;-89
2020/12/09 03:20:05;;;;;;;;;;;;;;;2.03;100.00;92921.66;5073855;28;19978;-89
2020/12/09 03:22:31;;;;;;;;;;;;;;;2.05;100.00;92907.09;5073897;28;19920;-90
2020/12/09 03:24:57;;;;;;;;;;;;;;;2.07;100.00;92901.84;5073868;28;20440;-90
2020/12/09 03:27:23;;;;;;;;;;;;;;;2.03;100.00;92911.50;5073805;28;19924;-89
2020/12/09 03:29:50;;;;;;;;;;;;;;;2.05;100.00;92902.03;5073563;28;19971;-90
2020/12/09 03:32:16;;;;;;;;;;;;;;;2.08;100.00;92903.44;5073482;28;20401;-89
2020/12/09 03:34:42;;;;;;;;;;;;;;;2.09;100.00;92899.94;5073644;28;19966;-90
2020/12/09 03:37:09;;;;;;;;;;;;;;;2.01;100.00;92903.28;5073719;28;19927;-89
2020/12/09 03:39:35;;;;;;;;;;;;;;;1.94;100.00;92900.63;5073701;28;20386;-90
2020/12/09 03:42:01;;;;;;;;;;;;;;;1.92;100.00;92896.66;5073441;28;19927;-90
2020/12/09 03:44:27;;;;;;;;;;;;;;;1.93;100.00;92883.03;5073336;28;20374;-88
2020/12/09 03:46:56;;;;;;;;;;;;;;;1.92;100.00;92878.94;5073504;28;20390;-88
2020/12/09 03:49:23;;;;;;;;;;;;;;;1.90;100.00;92879.09;5073512;28;19920;-90
2020/12/09 03:51:49;;;;;;;;;;;;;;;1.93;100.00;92877.97;5073604;28;19963;-88
2020/12/09 03:54:15;;;;;;;;;;;;;;;1.88;100.00;92883.56;5073376;28;19971;-89
2020/12/09 03:56:41;;;;;;;;;;;;;;;1.87;100.00;92876.91;5072767;28;19920;-90
2020/12/09 03:59:07;;;;;;;;;;;;;;;1.80;100.00;92883.59;5073053;28;20294;-89
2020/12/09 04:01:33;;;;;;;;;;;;;;;1.76;100.00;92884.88;5073321;28;19924;-88
2020/12/09 04:04:00;;;;;;;;;;;;;;;1.76;100.00;92893.22;5072990;28;19920;-89
2020/12/09 04:06:27;;;;;;;;;;;;;;;1.75;100.00;92898.47;5072217;28;19963;-90
2020/12/09 04:08:53;;;;;;;;;;;;;;;1.74;100.00;92895.16;5073226;28;19975;-90
2020/12/09 04:11:19;;;;;;;;;;;;;;;1.76;100.00;92898.31;5073207;28;19959;-89
2020/12/09 04:13:45;;;;;;;;;;;;;;;1.74;100.00;92900.22;5073832;28;19978;-89
2020/12/09 04:16:11;;;;;;;;;;;;;;;1.76;100.00;92893.22;5072811;28;19978;-91
2020/12/09 04:18:37;;;;;;;;;;;;;;;1.81;100.00;92893.53;5072813;28;20386;-89
2020/12/09 04:21:04;;;;;;;;;;;;;;;1.83;100.00;92895.91;5073655;28;19968;-88
2020/12/09 04:23:30;;;;;;;;;;;;;;;1.83;100.00;92879.00;5072832;28;19927;-89
2020/12/09 04:25:57;;;;;;;;;;;;;;;1.84;100.00;92879.75;5072502;28;19975;-89
2020/12/09 04:28:23;;;;;;;;;;;;;;;1.85;100.00;92877.06;5072595;28;19931;-88
2020/12/09 04:30:49;;;;;;;;;;;;;;;1.85;100.00;92888.97;5072733;28;19921;-89
2020/12/09 04:33:15;;;;;;;;;;;;;;;1.93;100.00;92875.44;5072360;28;19927;-90
2020/12/09 04:35:42;;;;;;;;;;;;;;;1.95;100.00;92873.56;5072284;28;19931;-91
2020/12/09 04:38:11;;;;;;;;;;;;;;;1.96;100.00;92870.88;5072167;28;19920;-90
2020/12/09 04:40:37;;;;;;;;;;;;;;;1.92;100.00;92868.81;5072064;28;19930;-90
2020/12/09 04:43:03;;;;;;;;;;;;;;;1.97;99.84;92879.25;5072036;28;19924;-90
2020/12/09 04:45:31;;;;;;;;;;;;;;;1.92;99.77;92874.69;5072393;28;20006;-90
2020/12/09 04:48:06;;;;;;;;;;;;;;;1.89;99.83;92871.69;5072162;28;19921;-90
2020/12/09 04:50:35;;;;;;;;;;;;;;;1.89;99.88;92874.22;5071945;28;19924;-90
2020/12/09 04:53:02;;;;;;;;;;;;;;;1.90;99.09;92868.97;5071861;28;19924;-91
2020/12/09 04:55:32;;;;;;;;;;;;;;;1.95;100.00;92871.78;5071802;28;19927;-90
2020/12/09 04:58:14;;;;;;;;;;;;;;;1.91;99.84;92867.22;5071812;28;20362;-91
2020/12/09 05:00:42;;;;;;;;;;;;;;;1.93;100.00;92878.78;5071789;28;19924;-90
2020/12/09 05:03:18;;;;;;;;;;;;;;;1.96;99.39;92870.06;5071776;28;19920;-91
2020/12/09 05:05:44;;;;;;;;;;;;;;;2.00;99.43;92863.72;5071619;28;19920;-90
2020/12/09 05:08:12;;;;;;;;;;;;;;;1.95;99.53;92856.59;5071720;28;19972;-90
2020/12/09 05:10:45;;;;;;;;;;;;;;;1.97;99.69;92854.72;5071835;28;19920;-91
2020/12/09 05:13:12;;;;;;;;;;;;;;;2.02;99.59;92864.34;5071642;28;19920;-91
2020/12/09 05:15:39;;;;;;;;;;;;;;;2.01;100.00;92867.81;5071253;28;20381;-90
2020/12/09 05:18:06;;;;;;;;;;;;;;;2.00;100.00;92864.50;5071486;28;20019;-91
2020/12/09 05:20:34;;;;;;;;;;;;;;;2.03;99.90;92858.31;5071466;28;19924;-90
2020/12/09 05:23:01;;;;;;;;;;;;;;;2.07;100.00;92849.44;5071645;28;19928;-90
2020/12/09 05:25:28;;;;;;;;;;;;;;;2.15;100.00;92868.88;5071868;28;19946;-91
2020/12/09 05:27:56;;;;;;;;;;;;;;;2.16;100.00;92864.59;5071568;28;19967;-90
2020/12/09 05:30:41;;;;;;;;;;;;;;;2.19;100.00;92861.72;5071342;28;19924;-90
2020/12/09 05:33:09;;;;;;;;;;;;;;;2.23;99.89;92860.44;5072144;28;20677;-89
2020/12/09 05:35:35;;;;;;;;;;;;;;;2.20;99.65;92859.03;5073375;28;19920;-89
2020/12/09 05:38:14;;;;;;;;;;;;;;;2.21;99.97;92870.72;5071760;28;20349;-90
2020/12/09 05:40:41;;;;;;;;;;;;;;;2.24;99.52;92862.81;5071473;28;19955;-90
2020/12/09 05:43:08;;;;;;;;;;;;;;;2.23;99.56;92870.56;5071231;28;20046;-90
2020/12/09 05:45:35;;;;;;;;;;;;;;;2.23;99.28;92873.88;5071104;28;19959;-91
2020/12/09 05:48:14;;;;;;;;;;;;;;;2.20;100.00;92868.34;5071218;28;19920;-90
2020/12/09 05:50:47;;;;;;;;;;;;;;;2.10;99.54;92868.56;5071484;28;19968;-89
2020/12/09 05:53:15;;;;;;;;;;;;;;;2.03;100.00;92852.47;5071545;28;19963;-90
2020/12/09 05:55:42;;;;;;;;;;;;;;;2.04;100.00;92859.88;5070963;28;19920;-91
2020/12/09 05:58:19;;;;;;;;;;;;;;;2.11;100.00;92860.00;5070024;28;20359;-90
2020/12/09 06:01:02;;;;;;;;;;;;;;;2.17;100.00;92868.72;5071042;28;20374;-90
2020/12/09 06:03:28;;;;;;;;;;;;;;;2.23;100.00;92855.38;5070487;28;19921;-90
2020/12/09 06:06:06;;;;;;;;;;;;;;;2.15;100.00;92848.59;5068072;28;19930;-90
2020/12/09 06:08:39;;;;;;;;;;;;;;;2.23;100.00;92857.91;5055408;28;20315;-90
2020/12/09 06:11:24;;;;;;;;;;;;;;;2.27;100.00;92865.00;5070699;28;19975;-90
2020/12/09 06:13:52;;;;;;;;;;;;;;;2.34;100.00;92869.38;5070878;28;19928;-91
2020/12/09 06:16:18;;;;;;;;;;;;;;;2.18;100.00;92863.44;5070842;28;19927;-91
2020/12/09 06:18:45;;;;;;;;;;;;;;;2.27;100.00;92867.53;5070789;28;19963;-91
2020/12/09 06:21:12;;;;;;;;;;;;;;;2.32;100.00;92863.72;5070850;28;19980;-91
2020/12/09 06:23:38;;;;;;;;;;;;;;;2.40;100.00;92858.59;5070720;28;20318;-90
2020/12/09 06:26:05;;;;;;;;;;;;;;;2.31;100.00;92844.41;5071014;28;19924;-90
2020/12/09 06:28:32;;;;;;;;;;;;;;;2.39;100.00;92860.34;5070547;28;20212;-91
2020/12/09 06:31:10;;;;;;;;;;;;;;;2.42;100.00;92861.75;5074107;28;20370;-91
2020/12/09 06:33:37;;;;;;;;;;;;;;;2.44;100.00;92854.75;5067668;28;19920;-91
2020/12/09 06:36:13;;;;;;;;;;;;;;;2.45;100.00;92861.41;5074661;28;20329;-90
2020/12/09 06:38:39;;;;;;;;;;;;;;;2.46;100.00;92855.38;5074363;28;19947;-91
2020/12/09 06:41:12;;;;;;;;;;;;;;;2.51;100.00;92850.59;5074394;28;20396;-90
2020/12/09 06:43:39;;;;;;;;;;;;;;;2.51;100.00;92854.88;5074316;28;19920;-91
2020/12/09 06:46:06;;;;;;;;;;;;;;;2.59;100.00;92866.72;5074625;28;19960;-91
2020/12/09 06:48:39;;;;;;;;;;;;;;;2.63;100.00;92860.34;5074336;28;19975;-90
2020/12/09 06:51:20;;;;;;;;;;;;;;;2.69;100.00;92856.34;5074101;28;19920;-90
2020/12/09 06:54:06;;;;;;;;;;;;;;;2.70;100.00;92860.44;5061282;28;20497;-90
2020/12/09 06:56:32;;;;;;;;;;;;;;;2.76;100.00;92864.84;5074012;28;19968;-91
2020/12/09 06:59:19;;;;;;;;;;;;;;;2.73;99.79;92860.91;5076175;28;20416;-90
2020/12/09 07:01:59;;;;;;;;;;;;;;;2.79;100.00;92856.91;5077247;28;19924;-91
2020/12/09 07:04:45;;;;;;;;;;;;;;;2.88;99.99;92860.94;5075821;28;19920;-93
2020/12/09 07:07:24;;;;;;;;;;;;;;;2.88;100.00;92865.25;5075970;28;19926;-92
2020/12/09 07:09:50;;;;;;;;;;;;;;;2.89;100.00;92856.66;5075737;28;20294;-92
2020/12/09 07:12:17;;;;;;;;;;;;;;;2.94;99.70;92845.06;5076538;28;19964;-92
2020/12/09 07:14:47;;;;;;;;;;;;;;;2.98;99.18;92847.22;5076465;28;20271;-91
2020/12/09 07:17:18;;;;;;;;;;;;;;;2.97;99.43;92841.38;5077973;28;19926;-91
2020/12/09 07:19:44;;;;;;;;;;;;;;;3.02;99.68;92849.25;5076483;28;19920;-91
2020/12/09 07:22:10;;;;;;;;;;;;;;;3.07;99.50;92848.75;5075333;28;20286;-91
2020/12/09 07:24:36;;;;;;;;;;;;;;;3.09;99.30;92846.81;5075184;28;19966;-92
2020/12/09 07:27:03;;;;;;;;;;;;;;;3.11;100.00;92849.19;5075637;28;19942;-90
2020/12/09 07:29:29;;;;;;;;;;;;;;;3.14;99.33;92852.16;5075224;28;19924;-92
2020/12/09 07:31:59;;;;;;;;;;;;;;;3.12;98.79;92851.56;5075353;28;20473;-91
2020/12/09 07:34:27;;;;;;;;;;;;;;;3.14;98.47;92861.53;5075651;28;20326;-92
2020/12/09 07:36:54;;;;;;;;;;;;;;;3.14;99.32;92861.53;5075315;28;20011;-91
2020/12/09 07:39:30;;;;;;;;;;;;;;;3.20;99.31;92860.84;5076262;28;19931;-91
2020/12/09 07:41:57;;;;;;;;;;;;;;;3.23;99.69;92855.41;5076391;28;20378;-92
2020/12/09 07:44:24;;;;;;;;;;;;;;;3.31;99.24;92857.09;5075666;28;19947;-91
2020/12/09 07:46:53;;;;;;;;;;;;;;;3.38;98.74;92849.56;5082872;28;19920;-93
2020/12/09 07:49:19;;;;;;;;;;;;;;;3.42;98.88;92843.97;5084096;28;19920;-91
2020/12/09 07:51:46;;;;;;;;;;;;;;;3.45;98.83;92852.97;5083126;28;19927;-91
2020/12/09 07:54:14;;;;;;;;;;;;;;;3.51;98.66;92844.66;5082009;28;19967;-91
2020/12/09 07:56:40;;;;;;;;;;;;;;;3.51;99.72;92844.66;5087577;28;19927;-91
2020/12/09 07:59:06;;;;;;;;;;;;;;;3.58;99.50;92847.31;5090898;28;19929;-90
2020/12/09 08:01:32;;;;;;;;;;;;;;;3.68;99.79;92852.09;5094211;28;19920;-88
2020/12/09 08:03:58;;;;;;;;;;;;;;;3.71;100.00;92841.59;5097201;28;19920;-89
2020/12/09 08:06:24;;;;;;;;;;;;;;;3.76;100.00;92843.59;5095326;28;19920;-88
2020/12/09 08:08:51;;;;;;;;;;;;;;;3.75;100.00;92847.88;5094962;28;19926;-90
2020/12/09 08:11:18;;;;;;;;;;;;;;;3.79;100.00;92855.97;5093900;28;19978;-90
2020/12/09 08:13:44;;;;;;;;;;;;;;;3.91;100.00;92864.72;5094443;28;19960;-90
2020/12/09 08:16:11;;;;;;;;;;;;;;;3.87;100.00;92858.41;5093690;28;19971;-90
2020/12/09 08:18:38;;;;;;;;;;;;;;;3.99;100.00;92864.59;5092971;28;19926;-90
2020/12/09 08:21:05;;;;;;;;;;;;;;;4.07;100.00;92868.81;5093138;28;19982;-91
2020/12/09 08:23:38;;;;;;;;;;;;;;;3.96;100.00;92866.72;5093347;28;19924;-91
2020/12/09 08:26:06;;;;;;;;;;;;;;;3.77;100.00;92873.13;5095124;28;19919;-91
2020/12/09 08:28:32;;;;;;;;;;;;;;;3.71;100.00;92885.56;5094574;28;19963;-91
2020/12/09 08:30:59;;;;;;;;;;;;;;;3.98;100.00;92875.75;5094785;28;19920;-90
2020/12/09 08:33:26;;;;;;;;;;;;;;;3.94;100.00;92878.81;5094142;28;19971;-92
2020/12/09 08:35:57;;;;;;;;;;;;;;;4.14;100.00;92895.09;5092767;28;19920;-91
2020/12/09 08:38:34;;;;;;;;;;;;;;;4.32;100.00;92888.03;5073242;28;19967;-91
2020/12/09 08:41:01;;;;;;;;;;;;;;;4.16;100.00;92883.97;5073411;28;19931;-90
2020/12/09 08:43:28;;;;;;;;;;;;;;;4.23;100.00;92885.63;5072156;28;19920;-90
2020/12/09 08:45:55;;;;;;;;;;;;;;;4.24;100.00;92878.75;5072813;28;19932;-90
2020/12/09 08:48:21;;;;;;;;;;;;;;;4.31;100.00;92872.03;5073296;28;19927;-90
2020/12/09 08:50:48;;;;;;;;;;;;;;;4.27;100.00;92869.03;5073849;28;19921;-92
2020/12/09 08:53:14;;;;;;;;;;;;;;;4.04;100.00;92863.28;5073770;28;20370;-91
2020/12/09 08:55:42;;;;;;;;;;;;;;;4.07;100.00;92868.03;5073550;28;19920;-90
2020/12/09 08:58:08;;;;;;;;;;;;;;;4.03;100.00;92867.56;5073953;28;20374;-90
2020/12/09 09:00:36;;;;;;;;;;;;;;;4.20;100.00;92862.28;5074222;28;19926;-89
2020/12/09 09:03:03;;;;;;;;;;;;;;;4.13;100.00;92860.47;5074767;28;20370;-88
2020/12/09 09:05:29;;;;;;;;;;;;;;;4.18;100.00;92859.94;5075369;28;19959;-88
2020/12/09 09:07:55;;;;;;;;;;;;;;;4.38;100.00;92857.59;5073845;28;20287;-89
2020/12/09 09:10:22;;;;;;;;;;;;;;;4.65;100.00;92846.91;5073510;28;19965;-90
2020/12/09 09:12:48;;;;;;;;;;;;;;;4.89;100.00;92843.19;5073287;28;19920;-89
2020/12/09 09:15:14;;;;;;;;;;;;;;;5.03;100.00;92849.19;5074125;28;19920;-88
2020/12/09 09:17:41;;;;;;;;;;;;;;;4.95;100.00;92837.38;5073972;28;19920;-87
2020/12/09 09:20:07;;;;;;;;;;;;;;;5.07;100.00;92826.69;5073161;28;19935;-87
2020/12/09 09:22:33;;;;;;;;;;;;;;;5.17;100.00;92814.41;5072734;28;19926;-88
2020/12/09 09:25:00;;;;;;;;;;;;;;;5.22;100.00;92816.41;5071631;28;19927;-88
2020/12/09 09:27:26;;;;;;;;;;;;;;;5.44;100.00;92806.94;5074400;28;19920;-88
2020/12/09 09:29:52;;;;;;;;;;;;;;;5.38;99.19;92805.16;5072669;28;19921;-88
2020/12/09 09:32:19;;;;;;;;;;;;;;;5.39;100.00;92795.72;5072712;28;19921;-90
2020/12/09 09:34:46;;;;;;;;;;;;;;;5.47;99.28;92804.00;5073072;28;19974;-88
2020/12/09 09:37:12;;;;;;;;;;;;;;;5.56;98.93;92786.03;5072551;28;19969;-89
2020/12/09 09:39:38;;;;;;;;;;;;;;;5.35;98.57;92787.69;5072486;28;20571;-89
2020/12/09 09:42:04;;;;;;;;;;;;;;;5.18;98.51;92784.63;5072826;28;19921;-91
2020/12/09 09:44:30;;;;;;;;;;;;;;;5.38;98.97;92781.41;5072914;28;19921;-88
2020/12/09 09:46:57;;;;;;;;;;;;;;;5.38;97.51;92771.22;5072780;28;19920;-89
2020/12/09 09:49:23;;;;;;;;;;;;;;;5.35;97.56;92765.56;5073447;28;19921;-88
2020/12/09 09:51:52;;;;;;;;;;;;;;;5.48;97.94;92753.84;5073792;28;19964;-89
2020/12/09 09:54:18;;;;;;;;;;;;;;;5.38;97.83;92748.31;5071802;28;20359;-88
2020/12/09 09:56:44;;;;;;;;;;;;;;;5.30;97.89;92742.41;5072412;28;19963;-88
2020/12/09 09:59:10;;;;;;;;;;;;;;;5.38;98.07;92743.22;5072072;28;19927;-89
2020/12/09 10:01:37;;;;;;;;;;;;;;;5.52;98.29;92731.31;5072021;28;20339;-89
2020/12/09 10:04:06;;;;;;;;;;;;;;;5.44;98.14;92743.25;5074732;28;20297;-89
2020/12/09 10:06:32;;;;;;;;;;;;;;;5.46;98.72;92750.72;5076209;28;19927;-89
2020/12/09 10:08:59;;;;;;;;;;;;;;;5.51;98.40;92739.94;5075764;28;19927;-89
2020/12/09 10:11:26;;;;;;;;;;;;;;;5.57;98.28;92739.97;5075573;28;19920;-90
2020/12/09 10:13:52;;;;;;;;;;;;;;;5.77;97.43;92738.44;5075758;28;19928;-89
2020/12/09 10:16:22;;;;;;;;;;;;;;;5.77;96.99;92739.25;5075216;28;19966;-90
2020/12/09 10:18:48;;;;;;;;;;;;;;;5.94;96.39;92733.81;5075326;28;20278;-91
2020/12/09 10:21:21;;;;;;;;;;;;;;;5.91;95.71;92729.88;5075637;28;20011;-88
2020/12/09 10:23:47;;;;;;;;;;;;;;;5.87;96.37;92732.03;5075370;28;19976;-90
2020/12/09 10:26:14;;;;;;;;;;;;;;;5.89;95.60;92731.84;5075202;28;19955;-91
2020/12/09 10:28:40;;;;;;;;;;;;;;;5.67;95.44;92726.88;5075008;28;19997;-88
2020/12/09 10:31:06;;;;;;;;;;;;;;;5.65;96.05;92718.63;5075184;28;19972;-89
2020/12/09 10:33:32;;;;;;;;;;;;;;;5.70;96.19;92712.97;5075140;28;19990;-90
2020/12/09 10:35:59;;;;;;;;;;;;;;;5.65;96.58;92716.06;5074619;28;19924;-90
2020/12/09 10:38:25;;;;;;;;;;;;;;;5.56;95.90;92709.59;5074786;28;19920;-90
2020/12/09 10:40:51;;;;;;;;;;;;;;;5.72;96.82;92711.00;5074671;28;19924;-90
2020/12/09 10:43:18;;;;;;;;;;;;;;;5.72;96.12;92699.06;5074838;28;19927;-90
2020/12/09 10:45:44;;;;;;;;;;;;;;;5.82;96.10;92692.78;5074834;28;20277;-89
2020/12/09 10:48:10;;;;;;;;;;;;;;;5.90;96.68;92700.28;5075084;28;19920;-88
2020/12/09 10:50:38;;;;;;;;;;;;;;;5.93;95.58;92704.19;5074803;28;19921;-88
2020/12/09 10:53:04;;;;;;;;;;;;;;;5.97;95.42;92702.84;5074955;28;19924;-89
2020/12/09 10:55:31;;;;;;;;;;;;;;;5.99;94.78;92686.38;5074728;28;19920;-89
2020/12/09 10:57:57;;;;;;;;;;;;;;;5.83;94.97;92700.25;5074897;28;20448;-89
2020/12/09 11:00:24;;;;;;;;;;;;;;;5.69;95.56;92691.00;5074442;28;19959;-89
2020/12/09 11:02:50;;;;;;;;;;;;;;;5.83;95.50;92690.06;5074803;28;19924;-90
2020/12/09 11:05:17;;;;;;;;;;;;;;;5.72;95.44;92693.16;5074987;28;20428;-88
2020/12/09 11:07:43;;;;;;;;;;;;;;;5.63;95.91;92690.00;5081863;28;19919;-88
2020/12/09 11:10:10;;;;;;;;;;;;;;;5.61;95.57;92690.19;5078001;28;19924;-86
2020/12/09 11:12:36;;;;;;;;;;;;;;;5.57;96.57;92690.78;5070371;28;19971;-87
2020/12/09 11:15:02;;;;;;;;;;;;;;;5.66;95.97;92688.84;5080301;28;20290;-87
2020/12/09 11:17:29;;;;;;;;;;;;;;;5.82;95.93;92687.69;5080286;28;19998;-88
2020/12/09 11:19:56;;;;;;;;;;;;;;;5.84;94.35;92695.94;5078294;28;19925;-87
2020/12/09 11:22:22;;;;;;;;;;;;;;;5.93;94.84;92694.00;5071524;28;19928;-90
2020/12/09 11:24:48;;;;;;;;;;;;;;;5.69;94.12;92691.78;5076508;28;19964;-88
2020/12/09 11:27:14;;;;;;;;;;;;;;;5.57;94.92;92689.03;5078142;28;19931;-89
2020/12/09 11:29:41;;;;;;;;;;;;;;;5.67;94.51;92677.66;5089193;28;19920;-89
2020/12/09 11:32:07;;;;;;;;;;;;;;;5.50;94.71;92679.78;5073438;28;20363;-87
2020/12/09 11:34:34;;;;;;;;;;;;;;;5.49;95.05;92671.34;5073764;28;19924;-88
2020/12/09 11:37:00;;;;;;;;;;;;;;;5.58;94.87;92664.31;5075759;28;19920;-89
2020/12/09 11:39:27;;;;;;;;;;;;;;;5.56;94.30;92661.97;5076934;28;19926;-89
2020/12/09 11:41:53;;;;;;;;;;;;;;;5.71;93.99;92661.81;5079458;28;20326;-88
2020/12/09 11:44:19;;;;;;;;;;;;;;;5.78;93.96;92643.19;5081781;28;19967;-90
2020/12/09 11:46:45;;;;;;;;;;;;;;;5.62;94.42;92648.44;5083698;28;19920;-89
2020/12/09 11:49:11;;;;;;;;;;;;;;;5.76;95.50;92648.47;5081939;28;19920;-90
2020/12/09 11:51:39;;;;;;;;;;;;;;;5.79;94.13;92654.97;5083600;28;19923;-88
2020/12/09 11:54:05;;;;;;;;;;;;;;;5.77;94.62;92662.00;5081861;28;19959;-90
2020/12/09 11:56:31;;;;;;;;;;;;;;;5.66;94.37;92648.88;5082559;28;19990;-89
2020/12/09 11:58:57;;;;;;;;;;;;;;;5.53;94.53;92648.81;5073907;28;19929;-88
2020/12/09 12:01:23;;;;;;;;;;;;;;;5.51;94.61;92638.03;5074916;28;19921;-90
2020/12/09 12:03:50;;;;;;;;;;;;;;;5.35;95.53;92633.13;5073832;28;19924;-89
2020/12/09 12:06:21;;;;;;;;;;;;;;;5.27;96.18;92628.19;5079813;28;19978;-89
2020/12/09 12:08:48;;;;;;;;;;;;;;;5.26;95.27;92613.88;5095731;28;19920;-88
2020/12/09 12:11:15;;;;;;;;;;;;;;;5.10;96.51;92611.66;5093877;28;20025;-88
2020/12/09 12:13:41;;;;;;;;;;;;;;;5.18;96.94;92621.69;5084393;28;19971;-89
2020/12/09 12:16:12;;;;;;;;;;;;;;;5.25;95.64;92627.59;5066421;28;19920;-90
2020/12/09 12:18:38;;;;;;;;;;;;;;;5.39;95.02;92618.22;5073234;28;19920;-90
2020/12/09 12:21:04;;;;;;;;;;;;;;;5.46;95.46;92619.03;5073398;28;20390;-92
2020/12/09 12:23:30;;;;;;;;;;;;;;;5.58;94.51;92618.47;5072955;28;19963;-89
2020/12/09 12:25:58;;;;;;;;;;;;;;;5.50;94.75;92613.56;5071732;28;20387;-89
2020/12/09 12:28:24;;;;;;;;;;;;;;;5.44;95.10;92613.34;5073039;28;19920;-88
2020/12/09 12:30:50;;;;;;;;;;;;;;;5.42;94.73;92601.78;5072776;28;19921;-89
2020/12/09 12:33:16;;;;;;;;;;;;;;;5.41;94.91;92600.22;5072823;28;19925;-87
2020/12/09 12:35:42;;;;;;;;;;;;;;;5.40;96.00;92596.88;5072693;28;19920;-88
2020/12/09 12:38:08;;;;;;;;;;;;;;;5.41;94.97;92595.13;5073373;28;19959;-86
2020/12/09 12:40:35;;;;;;;;;;;;;;;5.28;95.90;92590.78;5072804;28;19975;-90
2020/12/09 12:43:02;;;;;;;;;;;;;;;5.30;95.56;92578.63;5073089;28;19985;-90
2020/12/09 12:45:28;;;;;;;;;;;;;;;5.32;95.31;92574.91;5072670;28;19927;-90
2020/12/09 12:47:54;;;;;;;;;;;;;;;5.39;95.22;92582.56;5072886;28;19926;-90
2020/12/09 12:50:20;;;;;;;;;;;;;;;5.46;94.88;92582.59;5072583;28;19950;-89
2020/12/09 12:52:46;;;;;;;;;;;;;;;5.49;95.06;92589.84;5072246;28;20286;-89